Lunderskov, Denmark
Current Conditions -  °F | °C
As of 5:33 AM on Wednesday 26 Nov 2014 (Local Time) from EKSP Reporting Station
Light Fog Light Fog  
Wind Chill: 37°   Ceiling: Unl
Heat Index: 41°   Visibility: 5mi
Dew Point: 41°   Wind: 6mph
Humidity: 100%   Direction: 80°E
Pressure: 30.24"   Gusts: NA
Location:  55.48°N, 9.3°E
Report Text: EKSP 260433Z 08005KT 8000 MIFG FEW026 SCT200 05/05 Q1024
Loading
Personal Weather Stations






























Interactive Weather Map New forecast layout! Learn more

10-Day Weather Forecast

Advertisements
Track Severe Weather on mobile